createdAt,value
2017-09-18T00:01:58.823Z,71.21
2017-09-18T00:07:00.770Z,71.52
2017-09-18T00:12:02.755Z,71.31
2017-09-18T00:17:04.695Z,71.03
2017-09-18T00:22:06.673Z,70.68
2017-09-18T00:27:08.680Z,70.72
2017-09-18T00:32:10.657Z,70.99
2017-09-18T00:37:13.454Z,71.24
2017-09-18T00:42:15.576Z,71.30
2017-09-18T00:47:18.480Z,71.37
2017-09-18T00:52:21.467Z,71.73
2017-09-18T00:57:23.479Z,71.75
2017-09-18T01:02:26.229Z,71.58
2017-09-18T01:07:28.217Z,71.50
2017-09-18T01:12:30.313Z,70.81
2017-09-18T01:17:33.053Z,70.88
2017-09-18T01:22:35.101Z,70.67
2017-09-18T01:27:37.091Z,70.51
2017-09-18T01:32:39.822Z,70.23
2017-09-18T01:37:41.828Z,70.09
2017-09-18T01:42:43.791Z,70.17
2017-09-18T01:47:45.811Z,70.53
2017-09-18T01:52:47.828Z,70.82
2017-09-18T01:57:49.812Z,70.57
2017-09-18T02:02:51.865Z,70.65
2017-09-18T02:07:54.925Z,70.66
2017-09-18T02:12:56.880Z,70.80
2017-09-18T02:17:59.550Z,71.11
2017-09-18T02:23:01.566Z,71.27
2017-09-18T02:28:03.514Z,71.06
2017-09-18T02:33:05.526Z,71.15
2017-09-18T02:38:07.526Z,70.85
2017-09-18T02:43:10.300Z,70.78
2017-09-18T02:48:12.348Z,71.27
2017-09-18T02:53:15.041Z,71.35
2017-09-18T02:58:17.031Z,71.58
2017-09-18T03:03:19.044Z,71.69
2017-09-18T03:08:21.046Z,71.66
2017-09-18T03:13:23.763Z,71.80
2017-09-18T03:18:25.772Z,71.53
2017-09-18T03:23:28.530Z,71.76
2017-09-18T03:28:35.720Z,72.09
2017-09-18T03:33:39.015Z,72.21
2017-09-18T03:38:41.160Z,72.27
2017-09-18T03:43:43.256Z,72.44
2017-09-18T03:48:45.265Z,72.51
2017-09-18T03:53:47.248Z,72.67
2017-09-18T03:58:49.362Z,72.55
2017-09-18T04:03:51.427Z,72.32
2017-09-18T04:08:54.496Z,72.47
2017-09-18T04:13:56.535Z,72.59
2017-09-18T04:18:58.650Z,72.61
2017-09-18T04:24:00.683Z,72.43
2017-09-18T04:29:04.386Z,72.41
2017-09-18T04:34:07.493Z,72.45
2017-09-18T04:39:09.486Z,72.16
2017-09-18T04:44:11.455Z,71.94
2017-09-18T04:49:13.845Z,71.80
2017-09-18T04:54:15.906Z,71.73
2017-09-18T04:59:17.933Z,71.49
2017-09-18T05:04:19.973Z,71.30
2017-09-18T05:09:23.923Z,71.36
2017-09-18T05:14:26.887Z,71.33
2017-09-18T05:19:28.816Z,71.18
2017-09-18T05:24:30.844Z,71.11
2017-09-18T05:29:33.582Z,70.88
2017-09-18T05:34:36.350Z,70.78
2017-09-18T05:39:38.266Z,70.78
2017-09-18T05:44:40.481Z,70.95
2017-09-18T05:49:42.479Z,70.97
2017-09-18T05:54:51.459Z,70.86
2017-09-18T05:59:59.612Z,70.88
2017-09-18T06:05:02.327Z,70.73
2017-09-18T06:10:05.534Z,70.25
2017-09-18T06:15:08.532Z,69.59
2017-09-18T06:20:10.737Z,68.89
2017-09-18T06:25:12.719Z,68.50
2017-09-18T06:30:14.782Z,68.26
2017-09-18T06:35:17.588Z,68.44
2017-09-18T06:40:20.668Z,68.12
2017-09-18T06:45:22.673Z,68.02
2017-09-18T06:50:25.590Z,67.34
2017-09-18T06:55:28.185Z,66.71
2017-09-18T07:00:30.467Z,66.17
2017-09-18T07:05:32.681Z,66.25
2017-09-18T07:10:35.245Z,65.42
2017-09-18T07:15:37.420Z,64.87
2017-09-18T07:20:39.594Z,65.75
2017-09-18T07:25:42.348Z,66.62
2017-09-18T07:30:44.522Z,67.88
2017-09-18T07:35:46.990Z,68.93
2017-09-18T07:40:50.153Z,69.30
2017-09-18T07:45:52.681Z,69.39
2017-09-18T07:50:55.471Z,69.40
2017-09-18T07:55:59.527Z,69.87
2017-09-18T08:01:01.950Z,69.62
2017-09-18T08:06:06.668Z,69.30
2017-09-18T08:11:12.115Z,68.68
2017-09-18T08:16:14.617Z,68.35
2017-09-18T08:21:19.229Z,67.63
2017-09-18T08:26:23.105Z,67.22
2017-09-18T08:31:26.099Z,67.16
2017-09-18T08:36:32.780Z,66.47
2017-09-18T08:41:35.182Z,65.82
2017-09-18T08:46:37.577Z,65.84
2017-09-18T08:51:39.525Z,65.24
2017-09-18T08:56:41.690Z,64.67
2017-09-18T09:01:43.654Z,64.27
2017-09-18T09:06:45.697Z,64.10
2017-09-18T09:11:48.165Z,62.99
2017-09-18T09:16:51.440Z,62.09
2017-09-18T09:21:55.948Z,61.73
2017-09-18T09:26:57.890Z,61.94
2017-09-18T09:32:02.491Z,62.72
2017-09-18T09:37:06.274Z,62.84
2017-09-18T09:42:08.295Z,62.48
2017-09-18T09:47:11.383Z,62.42
2017-09-18T09:52:13.411Z,62.10
2017-09-18T09:57:18.218Z,62.05
2017-09-18T10:02:20.188Z,62.08
2017-09-18T10:07:22.139Z,62.29
2017-09-18T10:12:24.906Z,62.75
2017-09-18T10:17:26.830Z,62.03
2017-09-18T10:22:28.923Z,60.65
2017-09-18T10:27:33.257Z,59.65
2017-09-18T10:32:35.218Z,58.38
2017-09-18T10:37:37.203Z,57.95
2017-09-18T10:42:39.217Z,58.71
2017-09-18T10:47:41.212Z,58.28
2017-09-18T10:52:43.233Z,57.33
2017-09-18T10:57:45.539Z,56.58
2017-09-18T11:02:47.556Z,56.73
2017-09-18T11:07:49.542Z,56.42
2017-09-18T11:12:51.464Z,56.69
2017-09-18T11:17:54.419Z,56.34
2017-09-18T11:22:57.557Z,55.68
2017-09-18T11:27:59.967Z,56.17
2017-09-18T11:33:01.995Z,55.86
2017-09-18T11:38:05.615Z,56.35
2017-09-18T11:43:07.620Z,57.92
2017-09-18T11:48:09.674Z,59.94
2017-09-18T11:53:12.674Z,61.53
2017-09-18T11:58:14.675Z,63.96
2017-09-18T12:03:16.788Z,65.86
2017-09-18T12:08:18.983Z,66.51
2017-09-18T12:13:21.007Z,66.35
2017-09-18T12:18:22.968Z,65.35
2017-09-18T12:23:24.961Z,65.18
2017-09-18T12:28:27.323Z,64.96
2017-09-18T12:33:36.210Z,64.35
2017-09-18T12:38:38.200Z,63.09
2017-09-18T12:43:40.610Z,62.72
2017-09-18T12:48:42.651Z,61.96
2017-09-18T12:53:45.052Z,60.16
2017-09-18T12:58:47.083Z,59.79
2017-09-18T13:03:49.834Z,58.88
2017-09-18T13:08:51.782Z,58.76
2017-09-18T13:13:53.741Z,58.95
2017-09-18T13:18:55.755Z,58.50
2017-09-18T13:23:57.954Z,58.36
2017-09-18T13:29:00.653Z,57.73
2017-09-18T13:34:02.843Z,56.51
2017-09-18T13:39:04.945Z,57.22
2017-09-18T13:44:06.914Z,57.59
2017-09-18T13:49:08.920Z,57.98
2017-09-18T13:54:12.655Z,57.36
2017-09-18T13:59:14.600Z,57.46
2017-09-18T14:04:16.563Z,56.81
2017-09-18T14:09:18.522Z,57.31
2017-09-18T14:14:20.474Z,58.17
2017-09-18T14:19:23.161Z,58.84
2017-09-18T14:24:25.327Z,59.69
2017-09-18T14:29:27.296Z,60.11
2017-09-18T14:34:29.266Z,59.69
2017-09-18T14:39:32.512Z,59.16
2017-09-18T14:44:34.479Z,59.36
2017-09-18T14:49:36.909Z,60.82
2017-09-18T14:54:38.894Z,62.13
2017-09-18T14:59:40.851Z,63.19
2017-09-18T15:04:43.018Z,63.34
2017-09-18T15:09:45.024Z,61.10
2017-09-18T15:14:47.031Z,59.75
2017-09-18T15:19:48.997Z,60.11
2017-09-18T15:24:50.980Z,61.10
2017-09-18T15:29:52.937Z,59.85
2017-09-18T15:34:55.157Z,59.10
2017-09-18T15:39:57.151Z,58.21
2017-09-18T15:44:59.914Z,57.69
2017-09-18T15:50:02.051Z,55.33
2017-09-18T15:55:04.784Z,55.66
2017-09-18T16:00:06.846Z,56.22
2017-09-18T16:05:09.217Z,58.32
2017-09-18T16:10:11.217Z,58.69
2017-09-18T16:15:13.214Z,59.32
2017-09-18T16:20:15.226Z,59.95
2017-09-18T16:25:17.288Z,60.79
2017-09-18T16:30:19.299Z,60.49
2017-09-18T16:35:22.145Z,60.81
2017-09-18T16:40:24.258Z,61.52
2017-09-18T16:45:26.554Z,61.79
2017-09-18T16:50:28.633Z,62.43
2017-09-18T16:55:31.256Z,62.78
2017-09-18T17:00:34.744Z,63.87
2017-09-18T17:05:39.688Z,64.79
2017-09-18T17:10:42.022Z,65.41
2017-09-18T17:15:44.518Z,65.75
2017-09-18T17:20:47.797Z,66.51
2017-09-18T17:25:49.920Z,67.17
2017-09-18T17:30:58.160Z,68.13
2017-09-18T17:36:00.159Z,68.55
2017-09-18T17:41:03.207Z,68.65
2017-09-18T17:46:06.813Z,68.67
2017-09-18T17:51:09.629Z,68.41
2017-09-18T17:56:11.614Z,68.69
2017-09-18T18:01:13.631Z,68.67
2017-09-18T18:06:16.017Z,68.16
2017-09-18T18:11:18.189Z,68.17
2017-09-18T18:16:20.439Z,68.69
2017-09-18T18:21:23.012Z,69.09
2017-09-18T18:26:24.963Z,69.45
2017-09-18T18:31:28.435Z,70.04
2017-09-18T18:36:30.890Z,69.96
2017-09-18T18:41:32.915Z,70.57
2017-09-18T18:46:34.879Z,70.79
2017-09-18T18:51:38.416Z,71.02
2017-09-18T18:56:40.446Z,71.30
2017-09-18T19:01:42.563Z,71.29
2017-09-18T19:06:44.603Z,71.75
2017-09-18T19:11:49.681Z,71.85
2017-09-18T19:16:55.719Z,72.21
2017-09-18T19:22:00.732Z,72.65
2017-09-18T19:27:02.805Z,72.55
2017-09-18T19:32:07.173Z,72.19
2017-09-18T19:37:09.507Z,71.65
2017-09-18T19:42:12.371Z,71.33
2017-09-18T19:47:14.854Z,71.24
2017-09-18T19:52:17.138Z,71.45
2017-09-18T19:57:19.465Z,71.26
2017-09-18T20:02:21.804Z,71.09
2017-09-18T20:07:24.307Z,70.87
2017-09-18T20:12:26.829Z,70.81
2017-09-18T20:17:30.014Z,70.51
2017-09-18T20:22:32.289Z,70.29
2017-09-18T20:27:34.702Z,70.11
2017-09-18T20:32:36.723Z,69.64
2017-09-18T20:37:39.238Z,69.40
2017-09-18T20:42:41.288Z,69.14
2017-09-18T20:47:43.374Z,68.99
2017-09-18T20:52:45.444Z,69.10
2017-09-18T20:57:47.416Z,69.09
2017-09-18T21:02:50.203Z,68.90
2017-09-18T21:07:52.968Z,68.62
2017-09-18T21:12:55.021Z,68.47
2017-09-18T21:17:56.974Z,68.14
2017-09-18T21:22:59.130Z,67.89
2017-09-18T21:28:01.189Z,67.87
2017-09-18T21:33:03.394Z,67.79
2017-09-18T21:38:05.379Z,67.50
2017-09-18T21:43:08.068Z,67.37
2017-09-18T21:48:10.068Z,67.40
2017-09-18T21:53:12.063Z,67.33
2017-09-18T21:58:14.062Z,67.69
2017-09-18T22:03:18.032Z,67.80
2017-09-18T22:08:20.334Z,67.82
2017-09-18T22:13:22.668Z,68.11
2017-09-18T22:18:24.663Z,68.37
2017-09-18T22:23:26.650Z,68.31
2017-09-18T22:28:28.675Z,68.41
2017-09-18T22:33:30.884Z,68.37
2017-09-18T22:38:33.702Z,68.31
2017-09-18T22:43:35.675Z,68.39
2017-09-18T22:48:37.663Z,68.44
2017-09-18T22:53:40.475Z,68.59
2017-09-18T22:58:42.587Z,68.49
2017-09-18T23:03:46.112Z,68.47
2017-09-18T23:08:48.188Z,68.61
2017-09-18T23:13:53.504Z,68.83
2017-09-18T23:18:55.456Z,69.07
2017-09-18T23:23:57.456Z,69.05
2017-09-18T23:28:59.539Z,69.02
2017-09-18T23:34:01.590Z,68.84
2017-09-18T23:39:03.895Z,69.21
2017-09-18T23:44:05.943Z,69.28
2017-09-18T23:49:08.657Z,69.55
2017-09-18T23:54:11.386Z,69.55
2017-09-18T23:59:13.375Z,69.75
